Time;durP1;ratioP1;P1;durP2;ratioP2;P2;SDS_P1;SDS_P2;PMS_P1;PMS_P2;Temp;Humidity;BMP_temperature;BMP_pressure;BME280_temperature;BME280_humidity;BME280_pressure;Samples;Min_cycle;Max_cycle;Signal;HPM_P1;HPM_P2
2023/04/06 00:00:18;;;;;;;;;4.00;2.00;;;;;20.41;49.69;101596.26;110210;1264;18626;-40
2023/04/06 00:03:05;;;;;;;;;3.50;3.50;;;;;20.39;49.78;101591.87;110250;1264;22626;-39
2023/04/06 00:05:32;;;;;;;;;4.00;4.00;;;;;20.38;49.64;101586.69;110201;1264;20133;-40
2023/04/06 00:08:00;;;;;;;;;4.00;4.00;;;;;20.40;49.51;101591.65;110198;1251;20042;-39
2023/04/06 00:10:27;;;;;;;;;2.00;2.00;;;;;20.39;49.58;101587.33;110214;1264;20544;-39
2023/04/06 00:12:56;;;;;;;;;7.00;4.00;;;;;20.39;49.70;101589.75;110200;1264;18428;-38
2023/04/06 00:15:23;;;;;;;;;2.00;2.00;;;;;20.40;49.52;101592.73;110256;1249;20022;-38
2023/04/06 00:17:51;;;;;;;;;4.00;4.00;;;;;20.39;49.49;101588.81;110197;1251;21175;-39
2023/04/06 00:20:18;;;;;;;;;2.00;2.00;;;;;20.39;49.51;101587.55;110220;1264;18464;-39
2023/04/06 00:22:45;;;;;;;;;4.00;4.00;;;;;20.38;49.59;101585.80;110226;1264;18649;-39
2023/04/06 00:25:12;;;;;;;;;2.00;2.00;;;;;20.38;49.50;101585.97;110214;1251;20753;-38
2023/04/06 00:27:40;;;;;;;;;4.00;4.00;;;;;20.38;49.62;101584.70;110214;1251;19654;-40
2023/04/06 00:30:07;;;;;;;;;2.00;2.00;;;;;20.38;49.43;101582.70;110200;1264;21436;-41
2023/04/06 00:32:34;;;;;;;;;2.00;2.00;;;;;20.38;49.51;101586.17;110194;1250;20800;-40
2023/04/06 00:35:02;;;;;;;;;4.00;3.00;;;;;20.38;49.43;101586.73;110195;1264;19557;-40
2023/04/06 00:37:29;;;;;;;;;4.00;4.00;;;;;20.38;49.49;101583.44;110212;1251;19964;-40
2023/04/06 00:39:56;;;;;;;;;4.00;4.00;;;;;20.37;49.38;101580.24;110214;1251;20754;-39
2023/04/06 00:42:26;;;;;;;;;2.00;2.00;;;;;20.37;49.33;101583.39;110218;1264;18539;-40
2023/04/06 00:44:53;;;;;;;;;2.00;2.00;;;;;20.38;49.55;101581.88;110199;1258;20103;-40
2023/04/06 00:47:20;;;;;;;;;2.00;2.00;;;;;20.37;49.47;101581.91;110199;1257;19313;-40
2023/04/06 00:49:48;;;;;;;;;4.00;4.00;;;;;20.36;49.41;101578.60;110218;1251;19654;-38
2023/04/06 00:52:15;;;;;;;;;3.00;3.00;;;;;20.37;49.50;101582.45;110122;1264;18618;-38
2023/04/06 00:54:43;;;;;;;;;4.00;3.33;;;;;20.37;49.41;101580.48;110219;1251;20733;-38
2023/04/06 00:57:10;;;;;;;;;4.00;2.00;;;;;20.37;49.47;101577.08;110231;1264;18282;-38
2023/04/06 00:59:37;;;;;;;;;4.00;4.00;;;;;20.38;49.34;101583.30;110273;1264;20961;-40
2023/04/06 01:02:04;;;;;;;;;2.00;2.00;;;;;20.36;49.52;101575.50;110234;1264;20703;-39
2023/04/06 01:04:32;;;;;;;;;2.00;2.00;;;;;20.36;49.48;101575.16;110183;1264;18386;-40
2023/04/06 01:06:59;;;;;;;;;4.00;2.00;;;;;20.36;49.44;101572.23;110184;1251;20132;-38
2023/04/06 01:09:26;;;;;;;;;3.00;3.00;;;;;20.35;49.31;101566.48;110201;1249;23814;-38
2023/04/06 01:11:55;;;;;;;;;4.00;2.00;;;;;20.36;49.33;101574.24;110201;1264;18413;-38
2023/04/06 01:14:22;;;;;;;;;4.00;4.00;;;;;20.35;49.21;101575.23;110205;1250;20040;-38
2023/04/06 01:16:50;;;;;;;;;2.00;2.00;;;;;20.36;49.27;101574.39;110224;1264;19694;-38
2023/04/06 01:19:17;;;;;;;;;2.00;2.00;;;;;20.36;49.57;101570.66;110197;1264;22744;-38
2023/04/06 01:21:44;;;;;;;;;4.00;4.00;;;;;20.35;49.46;101573.25;110198;1251;20077;-39
2023/04/06 01:24:12;;;;;;;;;3.33;2.00;;;;;20.35;49.32;101566.58;110182;1251;20675;-39
2023/04/06 01:26:39;;;;;;;;;2.67;2.67;;;;;20.35;49.34;101564.23;110230;1251;19803;-39
2023/04/06 01:29:07;;;;;;;;;2.00;2.00;;;;;20.36;49.26;101567.16;110187;1264;18609;-39
2023/04/06 01:31:34;;;;;;;;;4.00;4.00;;;;;20.34;49.32;101560.07;110200;1264;19801;-39
2023/04/06 01:34:01;;;;;;;;;2.00;2.00;;;;;20.35;49.40;101564.20;110104;1251;19851;-39
2023/04/06 01:36:28;;;;;;;;;2.00;2.00;;;;;20.34;49.34;101564.77;110166;1264;22219;-40
2023/04/06 01:38:56;;;;;;;;;3.00;3.00;;;;;20.33;49.37;101559.44;110220;1264;19350;-38
2023/04/06 01:41:23;;;;;;;;;2.00;2.00;;;;;20.35;49.40;101565.65;110217;1250;19506;-39
2023/04/06 01:43:54;;;;;;;;;5.00;5.00;;;;;20.34;49.37;101566.28;110220;1264;19970;-39
2023/04/06 01:46:21;;;;;;;;;4.00;2.00;;;;;20.34;49.36;101565.70;110229;1251;20731;-39
2023/04/06 01:48:48;;;;;;;;;5.00;4.00;;;;;20.34;49.44;101565.38;110206;1264;18342;-39
2023/04/06 01:51:16;;;;;;;;;4.00;2.00;;;;;20.33;49.24;101565.77;110204;1264;18561;-40
2023/04/06 01:53:43;;;;;;;;;2.00;2.00;;;;;20.34;49.17;101566.44;110171;1250;22102;-38
2023/04/06 01:56:11;;;;;;;;;2.00;2.00;;;;;20.33;49.15;101561.84;110181;1264;18538;-38
2023/04/06 01:58:38;;;;;;;;;4.00;4.00;;;;;20.33;49.33;101566.17;110210;1250;20977;-38
2023/04/06 02:01:05;;;;;;;;;2.00;2.00;;;;;20.35;49.26;101566.74;110179;1264;19324;-39
2023/04/06 02:03:33;;;;;;;;;4.00;2.00;;;;;20.33;49.34;101570.33;110194;1264;18432;-39
2023/04/06 02:06:00;;;;;;;;;2.00;2.00;;;;;20.33;49.24;101569.26;110206;1250;20132;-39
2023/04/06 02:08:27;;;;;;;;;5.00;4.00;;;;;20.34;49.23;101569.89;110193;1251;20928;-39
2023/04/06 02:10:55;;;;;;;;;4.00;4.00;;;;;20.33;49.34;101566.86;110207;1257;18402;-39
2023/04/06 02:13:22;;;;;;;;;3.00;2.00;;;;;20.33;49.31;101567.98;110220;1250;18658;-39
2023/04/06 02:15:49;;;;;;;;;4.00;4.00;;;;;20.32;49.13;101567.48;110196;1250;20835;-39
2023/04/06 02:18:17;;;;;;;;;3.00;3.00;;;;;20.33;49.28;101568.73;110199;1250;18827;-41
2023/04/06 02:20:45;;;;;;;;;3.33;2.00;;;;;20.32;49.24;101565.89;110199;1260;20003;-39
2023/04/06 02:23:12;;;;;;;;;4.00;4.00;;;;;20.32;49.11;101566.98;110199;1250;19384;-39
2023/04/06 02:25:40;;;;;;;;;4.00;4.00;;;;;20.33;49.01;101569.98;110172;1264;19515;-39
2023/04/06 02:28:08;;;;;;;;;5.00;4.00;;;;;20.33;49.17;101573.42;110187;1264;18654;-39
2023/04/06 02:30:35;;;;;;;;;4.00;2.67;;;;;20.32;49.03;101567.15;110173;1251;20993;-39
2023/04/06 02:33:03;;;;;;;;;4.00;4.00;;;;;20.32;49.25;101563.91;110183;1251;22195;-39
2023/04/06 02:35:30;;;;;;;;;2.00;2.00;;;;;20.33;49.18;101568.73;110186;1264;18659;-39
2023/04/06 02:37:57;;;;;;;;;4.00;4.00;;;;;20.32;49.20;101566.09;110209;1251;20655;-39
2023/04/06 02:40:25;;;;;;;;;5.00;4.00;;;;;20.31;48.97;101561.31;110178;1264;22357;-39
2023/04/06 02:42:52;;;;;;;;;4.00;2.00;;;;;20.31;49.23;101562.55;110210;1264;18656;-39
2023/04/06 02:45:20;;;;;;;;;7.00;5.00;;;;;20.31;49.21;101557.83;110209;1251;22158;-41
2023/04/06 02:47:47;;;;;;;;;4.00;4.00;;;;;20.31;49.18;101558.77;110186;1249;22539;-39
2023/04/06 02:50:15;;;;;;;;;5.00;4.00;;;;;20.30;49.04;101565.36;110202;1264;18619;-40
2023/04/06 02:52:42;;;;;;;;;4.50;4.00;;;;;20.31;49.08;101568.05;110201;1264;19377;-40
2023/04/06 02:55:10;;;;;;;;;4.00;3.00;;;;;20.30;49.09;101563.73;110187;1264;19564;-40
2023/04/06 02:57:37;;;;;;;;;4.00;4.00;;;;;20.30;49.24;101563.77;110188;1260;20020;-39
2023/04/06 03:00:05;;;;;;;;;2.00;2.00;;;;;20.31;49.10;101559.35;110199;1264;19370;-40
2023/04/06 03:02:32;;;;;;;;;4.00;4.00;;;;;20.31;49.19;101561.86;110201;1264;19560;-40
2023/04/06 03:05:00;;;;;;;;;4.00;4.00;;;;;20.30;49.25;101560.53;110213;1264;18541;-37
2023/04/06 03:07:27;;;;;;;;;2.00;2.00;;;;;20.29;49.19;101561.11;110210;1250;19355;-37
2023/04/06 03:09:55;;;;;;;;;4.00;4.00;;;;;20.30;48.97;101564.89;110244;1251;19654;-40
2023/04/06 03:12:22;;;;;;;;;5.00;4.00;;;;;20.31;49.09;101572.58;110206;1264;18745;-38
2023/04/06 03:14:49;;;;;;;;;4.00;4.00;;;;;20.31;49.13;101570.23;110213;1251;20775;-39
2023/04/06 03:17:17;;;;;;;;;4.00;4.00;;;;;20.30;49.15;101567.04;110118;1264;19847;-39
2023/04/06 03:19:44;;;;;;;;;4.00;4.00;;;;;20.31;48.94;101565.84;110309;1250;19977;-39
2023/04/06 03:22:12;;;;;;;;;5.00;4.00;;;;;20.30;48.95;101563.19;110261;1264;19360;-39
2023/04/06 03:24:39;;;;;;;;;5.00;5.00;;;;;20.31;48.96;101568.98;110223;1264;19151;-39
2023/04/06 03:27:07;;;;;;;;;4.50;4.00;;;;;20.30;49.08;101573.36;110205;1264;21144;-38
2023/04/06 03:29:35;;;;;;;;;5.00;4.00;;;;;20.31;48.94;101570.04;110242;1257;19352;-40
2023/04/06 03:32:02;;;;;;;;;2.00;2.00;;;;;20.30;49.11;101570.13;110197;1251;19881;-38
2023/04/06 03:34:30;;;;;;;;;4.00;4.00;;;;;20.30;48.97;101574.11;110199;1264;20943;-39
2023/04/06 03:36:57;;;;;;;;;4.50;4.00;;;;;20.30;49.02;101575.40;110198;1251;21589;-38
2023/04/06 03:39:25;;;;;;;;;4.50;2.00;;;;;20.29;48.95;101574.55;110194;1264;21262;-38
2023/04/06 03:41:52;;;;;;;;;2.33;2.33;;;;;20.30;48.88;101578.61;110204;1250;21518;-39
2023/04/06 03:44:20;;;;;;;;;4.00;4.00;;;;;20.30;49.06;101575.06;110205;1264;20782;-38
2023/04/06 03:46:47;;;;;;;;;4.50;4.50;;;;;20.29;48.87;101576.73;110198;1264;18440;-39
2023/04/06 03:49:15;;;;;;;;;2.00;2.00;;;;;20.29;48.95;101582.38;110200;1264;22219;-39
2023/04/06 03:51:42;;;;;;;;;4.00;4.00;;;;;20.29;48.97;101588.34;110203;1264;19208;-38
2023/04/06 03:54:10;;;;;;;;;7.00;4.00;;;;;20.28;48.83;101584.98;110264;1264;18387;-39
2023/04/06 03:56:37;;;;;;;;;2.00;2.00;;;;;20.28;48.93;101586.60;110248;1264;20335;-39
2023/04/06 03:59:05;;;;;;;;;2.00;2.00;;;;;20.29;48.88;101585.47;110277;1264;23193;-39
2023/04/06 04:01:32;;;;;;;;;4.00;4.00;;;;;20.29;48.99;101581.99;110265;1264;22261;-39
2023/04/06 04:03:59;;;;;;;;;3.00;3.00;;;;;20.29;48.88;101591.12;110270;1249;18655;-39
2023/04/06 04:06:27;;;;;;;;;5.00;4.00;;;;;20.28;48.95;101593.88;110160;1265;21766;-39
2023/04/06 04:08:54;;;;;;;;;2.00;2.00;;;;;20.28;49.00;101588.83;110192;1264;18311;-39
2023/04/06 04:11:22;;;;;;;;;4.00;4.00;;;;;20.28;48.98;101590.97;110193;1264;19853;-38
2023/04/06 04:13:49;;;;;;;;;5.00;4.50;;;;;20.28;49.00;101593.02;110203;1250;19558;-39
2023/04/06 04:16:17;;;;;;;;;2.00;2.00;;;;;20.29;48.97;101593.67;110212;1264;18326;-39
2023/04/06 04:18:45;;;;;;;;;4.00;4.00;;;;;20.29;48.87;101591.65;110194;1249;20135;-39
2023/04/06 04:21:12;;;;;;;;;5.00;5.00;;;;;20.29;48.91;101589.66;110205;1250;19401;-39
2023/04/06 04:23:40;;;;;;;;;2.00;2.00;;;;;20.29;49.03;101593.27;110185;1264;18516;-39
2023/04/06 04:26:07;;;;;;;;;4.00;4.00;;;;;20.28;48.79;101593.15;110188;1264;20089;-40
2023/04/06 04:28:35;;;;;;;;;4.00;4.00;;;;;20.27;48.73;101592.14;110217;1264;20729;-37
2023/04/06 04:31:02;;;;;;;;;4.00;4.00;;;;;20.25;48.87;101594.71;110284;1264;19924;-40
2023/04/06 04:33:30;;;;;;;;;4.00;4.00;;;;;20.28;48.81;101593.39;110222;1264;19865;-41
2023/04/06 04:35:57;;;;;;;;;2.00;2.00;;;;;20.30;48.77;101595.55;110173;1264;19348;-40
2023/04/06 04:38:25;;;;;;;;;4.00;4.00;;;;;20.32;48.91;101592.76;110205;1251;19744;-40
2023/04/06 04:40:52;;;;;;;;;7.00;5.00;;;;;20.32;49.49;101595.50;110192;1264;18693;-38
2023/04/06 04:43:19;;;;;;;;;4.00;4.00;;;;;20.32;49.66;101598.02;110216;1264;19342;-39
2023/04/06 04:45:47;;;;;;;;;5.67;5.67;;;;;20.36;49.87;101596.91;110196;1251;22382;-39
2023/04/06 04:48:14;;;;;;;;;4.00;4.00;;;;;20.37;49.92;101593.00;110201;1264;22901;-40
2023/04/06 04:50:42;;;;;;;;;2.00;2.00;;;;;20.37;50.25;101598.48;110215;1264;19352;-39
2023/04/06 04:53:09;;;;;;;;;4.00;4.00;;;;;20.35;50.50;101597.52;110222;1251;18506;-40
2023/04/06 04:55:37;;;;;;;;;2.00;2.00;;;;;20.37;50.45;101601.58;110123;1264;19994;-39
2023/04/06 04:58:04;;;;;;;;;4.00;4.00;;;;;20.36;50.64;101598.14;110196;1250;21222;-40
2023/04/06 05:00:32;;;;;;;;;4.50;4.50;;;;;20.36;50.95;101601.34;110193;1251;19639;-41
2023/04/06 05:02:59;;;;;;;;;4.00;4.00;;;;;20.37;50.75;101601.91;110200;1264;20020;-40
2023/04/06 05:05:27;;;;;;;;;4.00;4.00;;;;;20.37;50.86;101602.05;110136;1251;22428;-39
2023/04/06 05:07:54;;;;;;;;;4.00;4.00;;;;;20.37;51.06;101601.34;110288;1264;18521;-40
2023/04/06 05:10:22;;;;;;;;;5.00;5.00;;;;;20.36;51.00;101602.23;110286;1264;22221;-39
2023/04/06 05:12:49;;;;;;;;;4.00;4.00;;;;;20.35;50.99;101605.19;110176;1251;21116;-40
2023/04/06 05:15:17;;;;;;;;;4.00;4.00;;;;;20.35;51.10;101602.61;110196;1264;19571;-40
2023/04/06 05:17:44;;;;;;;;;4.50;4.00;;;;;20.38;50.88;101604.00;110206;1249;22187;-40
2023/04/06 05:20:12;;;;;;;;;4.00;4.00;;;;;20.37;50.81;101604.95;110227;1250;19334;-39
2023/04/06 05:22:40;;;;;;;;;4.00;4.00;;;;;20.38;50.68;101607.77;110207;1251;22277;-39
2023/04/06 05:25:07;;;;;;;;;4.00;4.00;;;;;20.37;50.77;101605.39;110176;1264;19966;-39
2023/04/06 05:27:35;;;;;;;;;4.00;4.00;;;;;20.36;50.91;101605.42;110156;1264;19327;-40
2023/04/06 05:30:02;;;;;;;;;4.00;4.00;;;;;20.36;51.12;101612.84;110202;1264;18233;-40
2023/04/06 05:32:29;;;;;;;;;5.67;5.00;;;;;20.38;51.04;101612.85;110176;1264;22754;-40
2023/04/06 05:34:57;;;;;;;;;4.67;4.00;;;;;20.39;50.77;101611.14;110181;1264;20732;-39
2023/04/06 05:37:24;;;;;;;;;4.50;4.50;;;;;20.37;50.81;101607.73;110167;1257;22968;-40
2023/04/06 05:39:52;;;;;;;;;4.50;4.00;;;;;20.35;50.58;101608.98;110162;1251;20200;-38
2023/04/06 05:42:19;;;;;;;;;2.00;2.00;;;;;20.35;50.53;101609.02;110127;1264;20682;-38
2023/04/06 05:44:47;;;;;;;;;5.00;4.00;;;;;20.35;50.51;101610.89;110260;1251;20867;-39
2023/04/06 05:47:14;;;;;;;;;5.00;5.00;;;;;20.34;50.64;101609.48;110226;1265;19948;-40
2023/04/06 05:49:42;;;;;;;;;5.00;5.00;;;;;20.35;50.43;101605.41;110199;1251;20805;-39
2023/04/06 05:52:09;;;;;;;;;2.00;2.00;;;;;20.37;50.58;101607.88;110208;1264;19540;-39
2023/04/06 05:54:37;;;;;;;;;4.00;4.00;;;;;20.41;50.78;101606.77;110195;1251;22648;-39
2023/04/06 05:57:04;;;;;;;;;6.00;5.00;;;;;20.44;50.99;101598.86;110188;1251;21034;-38
2023/04/06 05:59:32;;;;;;;;;4.00;4.00;;;;;20.46;51.01;101604.23;110198;1264;18448;-38
2023/04/06 06:02:01;;;;;;;;;4.00;4.00;;;;;20.45;51.08;101603.11;110189;1257;18974;-40
2023/04/06 06:04:28;;;;;;;;;4.50;3.00;;;;;20.45;51.31;101605.43;110232;1264;20720;-39
2023/04/06 06:06:55;;;;;;;;;4.00;4.00;;;;;20.44;51.26;101603.05;110237;1251;19873;-40
2023/04/06 06:09:23;;;;;;;;;4.00;4.00;;;;;20.45;51.41;101607.29;110199;1264;21660;-39
2023/04/06 06:11:50;;;;;;;;;5.00;4.00;;;;;20.46;51.49;101603.02;110190;1264;19347;-40
2023/04/06 06:14:18;;;;;;;;;4.00;4.00;;;;;20.46;51.66;101604.64;110184;1264;18369;-40
2023/04/06 06:16:46;;;;;;;;;8.00;7.00;;;;;20.46;51.56;101605.72;110183;1264;22866;-40
2023/04/06 06:19:13;;;;;;;;;4.00;4.00;;;;;20.46;51.38;101606.85;110192;1264;19245;-40
2023/04/06 06:21:40;;;;;;;;;4.00;2.00;;;;;20.46;51.42;101604.27;110190;1257;22184;-40
2023/04/06 06:24:08;;;;;;;;;4.00;4.00;;;;;20.46;51.31;101608.83;110197;1264;19930;-40
2023/04/06 06:26:36;;;;;;;;;5.00;5.00;;;;;20.47;51.15;101605.61;110193;1250;21237;-41
2023/04/06 06:29:05;;;;;;;;;5.00;4.00;;;;;20.48;51.26;101604.59;110266;1264;18998;-40
2023/04/06 06:31:32;;;;;;;;;4.00;4.00;;;;;20.49;51.39;101603.75;110194;1251;20052;-41
2023/04/06 06:33:59;;;;;;;;;4.00;4.00;;;;;20.47;51.73;101605.81;110195;1264;19685;-40
2023/04/06 06:36:27;;;;;;;;;4.00;4.00;;;;;20.45;51.86;101608.36;110213;1264;18894;-39
2023/04/06 06:38:54;;;;;;;;;4.00;4.00;;;;;20.47;51.87;101603.84;110198;1264;19994;-39
2023/04/06 06:41:22;;;;;;;;;4.00;4.00;;;;;20.49;51.75;101602.73;110171;1264;19367;-42
2023/04/06 06:43:49;;;;;;;;;2.00;2.00;;;;;20.50;51.95;101604.95;110225;1257;19827;-40
2023/04/06 06:46:17;;;;;;;;;4.00;4.00;;;;;20.50;51.95;101600.62;110231;1264;19963;-38
2023/04/06 06:48:44;;;;;;;;;5.00;4.00;;;;;20.50;51.99;101595.85;110155;1264;20446;-40
2023/04/06 06:51:12;;;;;;;;;4.00;4.00;;;;;20.52;51.95;101599.33;110228;1251;19804;-39
2023/04/06 06:53:39;;;;;;;;;;;;;;;20.53;51.79;101596.72;110307;1251;23871;-39
2023/04/06 06:56:06;;;;;;;;;2.00;2.00;;;;;20.53;51.77;101596.85;110230;1264;20762;-39
2023/04/06 06:58:34;;;;;;;;;4.00;4.00;;;;;20.53;51.90;101596.45;110199;1251;19240;-39
2023/04/06 07:01:01;;;;;;;;;4.00;4.00;;;;;20.54;51.96;101593.14;110189;1264;20008;-39
2023/04/06 07:03:29;;;;;;;;;7.00;5.00;;;;;20.54;51.65;101594.34;110182;1264;19526;-38
2023/04/06 07:05:56;;;;;;;;;6.00;6.00;;;;;20.56;51.79;101595.70;110248;1264;19539;-39
2023/04/06 07:08:24;;;;;;;;;4.50;4.00;;;;;20.56;51.61;101596.98;110240;1250;22514;-39
2023/04/06 07:10:52;;;;;;;;;3.00;3.00;;;;;20.56;51.47;101594.45;110261;1264;19371;-39
2023/04/06 07:13:22;;;;;;;;;4.00;4.00;;;;;20.56;51.28;101595.08;110230;1264;18897;-40
2023/04/06 07:15:49;;;;;;;;;4.00;2.00;;;;;20.57;51.42;101594.27;110207;1264;19059;-39
2023/04/06 07:18:17;;;;;;;;;5.00;4.00;;;;;20.58;51.67;101592.75;110171;1264;22193;-39
2023/04/06 07:20:44;;;;;;;;;2.00;2.00;;;;;20.56;51.90;101589.66;110225;1251;19647;-39
2023/04/06 07:23:12;;;;;;;;;2.00;2.00;;;;;20.56;51.85;101590.60;110195;1264;20000;-38
2023/04/06 07:25:39;;;;;;;;;4.00;4.00;;;;;20.52;51.57;101586.23;110193;1264;19512;-39
2023/04/06 07:28:07;;;;;;;;;2.00;2.00;;;;;20.50;51.73;101584.42;110267;1264;18834;-40
2023/04/06 07:30:34;;;;;;;;;4.00;4.00;;;;;20.49;51.48;101581.77;110238;1264;20266;-39
2023/04/06 07:33:02;;;;;;;;;4.00;4.00;;;;;20.48;51.37;101583.70;110164;1264;22088;-39
2023/04/06 07:35:30;;;;;;;;;4.00;2.00;;;;;20.46;51.56;101583.55;110229;1257;22184;-39
2023/04/06 07:37:58;;;;;;;;;4.00;2.00;;;;;20.47;51.50;101594.01;110247;1264;20290;-39
2023/04/06 07:40:26;;;;;;;;;2.00;2.00;;;;;20.45;51.34;101589.46;110220;1251;20947;-39
2023/04/06 07:42:53;;;;;;;;;2.00;2.00;;;;;20.44;51.30;101590.80;110189;1264;22873;-39
2023/04/06 07:45:20;;;;;;;;;2.00;2.00;;;;;20.44;51.22;101585.60;110264;1264;18626;-39
2023/04/06 07:47:48;;;;;;;;;4.00;4.00;;;;;20.43;51.02;101588.58;110266;1264;19723;-39
2023/04/06 07:50:16;;;;;;;;;1.67;1.67;;;;;20.43;50.80;101587.14;110274;1264;18457;-39
2023/04/06 07:52:43;;;;;;;;;5.00;4.00;;;;;20.42;50.89;101585.07;110252;1264;18813;-39
2023/04/06 07:55:11;;;;;;;;;2.00;2.00;;;;;20.43;50.64;101593.45;110252;1256;21913;-38
2023/04/06 07:57:38;;;;;;;;;35.50;29.50;;;;;20.50;50.68;101591.00;110276;1264;19775;-38
2023/04/06 08:00:05;;;;;;;;;54.00;42.00;;;;;20.50;50.59;101589.55;110255;1251;18610;-38
2023/04/06 08:02:33;;;;;;;;;;;;;;;20.50;50.41;101592.83;110232;1265;19384;-39
2023/04/06 08:05:01;;;;;;;;;89.50;64.00;;;;;20.48;50.31;101592.10;110130;1264;20184;-39
2023/04/06 08:07:28;;;;;;;;;89.00;64.00;;;;;20.49;50.27;101591.77;110225;1251;20360;-38
2023/04/06 08:09:56;;;;;;;;;75.00;57.00;;;;;20.50;50.21;101589.66;110264;1260;20779;-39
2023/04/06 08:12:23;;;;;;;;;67.50;52.50;;;;;20.53;50.05;101588.68;110255;1251;21200;-38
2023/04/06 08:14:50;;;;;;;;;67.50;49.00;;;;;20.53;50.07;101588.69;110270;1264;18765;-39
2023/04/06 08:17:18;;;;;;;;;52.50;44.50;;;;;20.53;49.79;101586.52;110258;1264;19413;-38
2023/04/06 08:19:46;;;;;;;;;47.00;36.00;;;;;20.53;49.82;101584.89;110200;1264;20178;-39
2023/04/06 08:22:13;;;;;;;;;51.67;37.33;;;;;20.52;49.99;101581.84;110273;1264;19297;-41
2023/04/06 08:24:41;;;;;;;;;33.00;29.00;;;;;20.52;50.17;101581.70;110259;1264;20738;-41
2023/04/06 08:27:08;;;;;;;;;30.00;29.00;;;;;20.54;50.10;101585.12;109959;1264;358229;-40
2023/04/06 08:29:36;;;;;;;;;31.50;24.50;;;;;20.53;50.32;101583.58;110208;1264;20416;-40
2023/04/06 08:32:04;;;;;;;;;33.00;23.00;;;;;20.53;50.29;101585.56;110250;1251;22724;-39
2023/04/06 08:34:32;;;;;;;;;31.00;24.00;;;;;20.52;50.17;101585.48;110241;1264;20029;-39
2023/04/06 08:36:59;;;;;;;;;25.00;16.67;;;;;20.50;50.46;101588.23;110227;1264;21174;-39
2023/04/06 08:39:27;;;;;;;;;14.00;13.50;;;;;20.49;50.57;101591.29;110204;1264;20916;-39
2023/04/06 08:41:56;;;;;;;;;19.00;16.50;;;;;20.48;50.32;101586.96;110139;1251;22824;-40
2023/04/06 08:44:24;;;;;;;;;17.00;14.00;;;;;20.49;50.38;101585.95;110215;1264;20100;-39
2023/04/06 08:46:52;;;;;;;;;18.67;15.67;;;;;20.52;50.43;101584.96;110117;1251;19226;-39
2023/04/06 08:49:20;;;;;;;;;14.00;11.00;;;;;20.54;50.27;101588.62;110167;1257;22711;-39
2023/04/06 08:51:47;;;;;;;;;17.00;14.00;;;;;20.54;49.94;101590.05;110093;1250;20070;-39
2023/04/06 08:54:15;;;;;;;;;13.00;11.00;;;;;20.53;50.00;101587.80;110123;1264;19834;-39
2023/04/06 08:56:42;;;;;;;;;11.67;11.67;;;;;20.51;50.17;101581.58;110200;1264;22000;-39
2023/04/06 08:59:10;;;;;;;;;13.00;11.00;;;;;20.50;50.37;101582.39;110208;1251;22209;-40
2023/04/06 09:01:37;;;;;;;;;8.67;8.67;;;;;20.52;50.20;101583.02;110222;1264;21941;-40
2023/04/06 09:04:08;;;;;;;;;10.00;8.00;;;;;20.51;50.34;101585.08;110237;1264;18817;-42
2023/04/06 09:06:36;;;;;;;;;13.00;9.00;;;;;20.53;50.24;101584.70;110275;1264;18712;-40
2023/04/06 09:09:04;;;;;;;;;10.00;8.00;;;;;20.53;50.09;101581.94;110254;1251;20855;-39
2023/04/06 09:11:31;;;;;;;;;5.00;5.00;;;;;20.51;49.95;101571.30;110247;1251;20144;-40
2023/04/06 09:13:59;;;;;;;;;7.00;7.00;;;;;20.50;50.12;101571.24;110210;1249;22610;-41
2023/04/06 09:16:26;;;;;;;;;5.00;5.00;;;;;20.50;50.14;101572.09;110216;1264;19390;-40
2023/04/06 09:18:54;;;;;;;;;10.00;6.00;;;;;20.50;50.15;101570.29;110235;1265;19542;-40
2023/04/06 09:21:21;;;;;;;;;8.00;5.00;;;;;20.52;50.00;101567.01;110287;1264;19021;-40
2023/04/06 09:23:49;;;;;;;;;5.00;5.00;;;;;20.51;49.97;101560.89;110230;1264;19381;-41
2023/04/06 09:26:16;;;;;;;;;4.50;4.50;;;;;20.50;49.99;101563.59;110226;1264;18704;-40
2023/04/06 09:28:45;;;;;;;;;4.50;4.00;;;;;20.49;49.89;101571.52;110237;1264;18974;-39
2023/04/06 09:31:12;;;;;;;;;5.00;4.67;;;;;20.48;49.86;101567.05;110247;1264;19332;-39
2023/04/06 09:33:40;;;;;;;;;4.50;4.00;;;;;20.49;49.88;101567.49;110220;1264;19827;-40
2023/04/06 09:36:09;;;;;;;;;4.00;4.00;;;;;20.50;49.29;101566.10;110206;1264;20373;-40
2023/04/06 09:38:36;;;;;;;;;10.00;10.00;;;;;20.40;47.15;101562.92;110262;1251;19467;-40
2023/04/06 09:41:04;;;;;;;;;10.00;8.00;;;;;20.23;44.59;101562.23;110234;1264;18399;-40
2023/04/06 09:43:32;;;;;;;;;9.00;8.00;;;;;20.12;41.84;101560.90;110147;1264;22012;-39
2023/04/06 09:45:59;;;;;;;;;9.00;9.00;;;;;20.03;39.17;101560.13;110165;1251;20831;-40
2023/04/06 09:48:27;;;;;;;;;11.00;11.00;;;;;19.99;37.94;101559.38;110263;1251;18439;-41
2023/04/06 09:50:54;;;;;;;;;10.00;8.00;;;;;19.92;36.51;101562.48;110219;1264;18716;-40
2023/04/06 09:53:21;;;;;;;;;9.00;9.00;;;;;19.88;35.83;101558.49;110266;1251;21903;-41
2023/04/06 09:55:49;;;;;;;;;10.00;7.00;;;;;19.78;35.12;101559.14;110225;1250;20921;-40
2023/04/06 09:58:18;;;;;;;;;11.00;10.00;;;;;19.75;34.01;101564.11;110230;1264;20001;-40
2023/04/06 10:00:46;;;;;;;;;9.33;9.00;;;;;19.69;33.34;101557.61;110187;1264;19310;-41
2023/04/06 10:03:14;;;;;;;;;10.00;9.00;;;;;19.70;32.67;101549.19;110238;1251;22241;-40
2023/04/06 10:05:41;;;;;;;;;13.00;10.00;;;;;19.71;32.34;101552.05;110240;1264;18677;-41
2023/04/06 10:08:09;;;;;;;;;8.00;8.00;;;;;19.64;32.11;101548.02;110205;1264;20825;-41
2023/04/06 10:10:36;;;;;;;;;7.00;7.00;;;;;19.57;31.65;101547.55;110247;1264;19904;-40
2023/04/06 10:13:03;;;;;;;;;9.00;9.00;;;;;19.54;31.53;101538.79;110259;1250;19796;-40
2023/04/06 10:15:31;;;;;;;;;7.00;7.00;;;;;19.55;31.12;101538.17;110218;1260;19729;-41
2023/04/06 10:17:58;;;;;;;;;9.50;9.50;;;;;19.52;31.03;101538.33;110160;1264;21055;-40
2023/04/06 10:20:26;;;;;;;;;11.33;9.67;;;;;19.46;30.71;101534.29;110242;1264;19862;-44
2023/04/06 10:22:56;;;;;;;;;12.00;9.00;;;;;19.43;30.43;101530.43;110283;1264;22720;-40
2023/04/06 10:25:24;;;;;;;;;9.50;9.00;;;;;19.41;30.24;101532.64;110230;1264;19909;-40
2023/04/06 10:27:51;;;;;;;;;7.00;7.00;;;;;19.44;30.84;101525.08;110143;1264;18691;-40
2023/04/06 10:30:18;;;;;;;;;6.00;6.00;;;;;19.59;31.47;101519.62;110118;1251;22113;-39
2023/04/06 10:32:46;;;;;;;;;6.00;4.00;;;;;19.71;31.59;101521.38;110239;1264;19525;-40
2023/04/06 10:35:14;;;;;;;;;7.00;6.00;;;;;19.81;32.13;101523.16;110196;1250;18754;-38
2023/04/06 10:37:41;;;;;;;;;4.67;4.00;;;;;19.86;32.31;101520.30;110196;1251;22702;-40
2023/04/06 10:40:09;;;;;;;;;4.00;4.00;;;;;19.92;32.92;101525.14;110234;1250;22158;-40
2023/04/06 10:42:36;;;;;;;;;4.00;4.00;;;;;19.96;32.96;101523.61;110218;1264;20157;-39
2023/04/06 10:45:03;;;;;;;;;6.00;4.00;;;;;20.00;33.36;101519.79;110216;1250;22511;-39
2023/04/06 10:47:31;;;;;;;;;7.00;7.00;;;;;20.03;33.64;101506.98;110200;1251;19658;-39
2023/04/06 10:49:58;;;;;;;;;6.00;5.00;;;;;20.04;34.21;101509.02;110203;1251;19978;-39
2023/04/06 10:52:26;;;;;;;;;3.50;3.50;;;;;20.07;34.53;101515.06;110206;1251;22360;-40
2023/04/06 10:54:54;;;;;;;;;3.00;3.00;;;;;20.08;34.83;101502.11;110271;1264;18465;-40
2023/04/06 10:57:22;;;;;;;;;4.00;4.00;;;;;20.10;35.33;101500.13;110203;1264;18668;-41
2023/04/06 10:59:49;;;;;;;;;3.00;3.00;;;;;20.12;35.46;101501.02;110236;1251;19347;-40
2023/04/06 11:02:16;;;;;;;;;3.00;3.00;;;;;20.14;35.89;101499.89;110203;1264;18702;-40
2023/04/06 11:04:44;;;;;;;;;4.00;4.00;;;;;20.14;36.36;101493.33;110223;1264;18637;-39
2023/04/06 11:07:11;;;;;;;;;2.00;2.00;;;;;20.14;36.51;101496.21;110232;1264;21679;-44
2023/04/06 11:09:39;;;;;;;;;2.00;2.00;;;;;20.14;36.90;101495.09;110197;1264;19860;-40
2023/04/06 11:12:06;;;;;;;;;4.00;2.00;;;;;20.16;37.22;101491.00;110187;1250;20100;-40
2023/04/06 11:14:34;;;;;;;;;2.00;2.00;;;;;20.15;37.41;101483.91;110187;1251;22043;-40
2023/04/06 11:17:01;;;;;;;;;4.00;2.00;;;;;20.17;37.56;101483.98;110215;1264;19591;-40